createdAt,value
2019-06-01T00:00:12.057Z,96738.99
2019-06-01T00:02:51.219Z,96740.05
2019-06-01T00:05:20.692Z,96744.86
2019-06-01T00:08:08.304Z,96741.05
2019-06-01T00:10:41.495Z,96739.96
2019-06-01T00:16:12.675Z,96737.22
2019-06-01T00:18:43.967Z,96740.68
2019-06-01T00:21:15.103Z,96735.56
2019-06-01T00:23:54.910Z,96739.03
2019-06-01T00:26:27.779Z,96734.66
2019-06-01T00:28:59.548Z,96733.60
2019-06-01T00:31:32.072Z,96731.70
2019-06-01T00:34:02.754Z,96724.22
2019-06-01T00:36:35.097Z,96727.73
2019-06-01T00:39:06.637Z,96722.59
2019-06-01T00:41:38.100Z,96723.09
2019-06-01T00:44:08.901Z,96726.55
2019-06-01T00:46:39.479Z,96722.25
2019-06-01T00:49:12.052Z,96726.80
2019-06-01T00:51:42.885Z,96728.14
2019-06-01T00:54:13.387Z,96731.34
2019-06-01T00:56:45.585Z,96734.27
2019-06-01T00:59:16.445Z,96734.00
2019-06-01T01:01:48.334Z,96732.63
2019-06-01T01:04:18.836Z,96731.80
2019-06-01T01:06:50.797Z,96729.63
2019-06-01T01:09:21.814Z,96731.73
2019-06-01T01:11:53.295Z,96719.64
2019-06-01T01:14:24.318Z,96727.40
2019-06-01T01:16:55.772Z,96721.51
2019-06-01T01:19:26.479Z,96727.89
2019-06-01T01:21:57.080Z,96722.25
2019-06-01T01:24:28.127Z,96725.98
2019-06-01T01:27:02.188Z,96726.23
2019-06-01T01:29:32.951Z,96719.81
2019-06-01T01:32:07.099Z,96727.53
2019-06-01T01:34:37.842Z,96724.57
2019-06-01T01:37:08.313Z,96721.61
2019-06-01T01:39:40.049Z,96724.53
2019-06-01T01:42:10.516Z,96723.97
2019-06-01T01:44:41.142Z,96725.30
2019-06-01T01:47:14.312Z,96724.77
2019-06-01T01:49:43.938Z,96720.19
2019-06-01T01:52:16.646Z,96719.38
2019-06-01T01:58:07.035Z,96719.59
2019-06-01T02:00:45.061Z,96715.81
2019-06-01T02:03:16.618Z,96714.72
2019-06-01T02:05:47.056Z,96710.70
2019-06-01T02:08:17.916Z,96707.48
2019-06-01T02:10:48.356Z,96705.59
2019-06-01T02:13:18.792Z,96709.08
2019-06-01T02:15:49.340Z,96707.73
2019-06-01T02:18:20.028Z,96705.63
2019-06-01T02:20:50.435Z,96713.63
2019-06-01T02:23:28.697Z,96707.45
2019-06-01T02:26:01.194Z,96710.91
2019-06-01T02:28:31.848Z,96708.23
2019-06-01T02:31:03.897Z,96703.39
2019-06-01T02:33:34.533Z,96704.73
2019-06-01T02:36:05.424Z,96702.54
2019-06-01T02:38:36.541Z,96701.45
2019-06-01T02:41:06.966Z,96700.92
2019-06-01T02:43:37.409Z,96706.80
2019-06-01T02:46:07.881Z,96699.00
2019-06-01T02:48:38.299Z,96695.23
2019-06-01T02:51:13.805Z,96696.33
2019-06-01T02:53:44.641Z,96700.59
2019-06-01T02:56:18.231Z,96701.16
2019-06-01T02:58:50.929Z,96700.34
2019-06-01T03:01:34.408Z,96701.16
2019-06-01T03:04:08.311Z,96703.27
2019-06-01T03:06:41.817Z,96699.78
2019-06-01T03:09:12.330Z,96700.84
2019-06-01T03:11:42.887Z,96701.61
2019-06-01T03:14:13.478Z,96699.98
2019-06-01T03:16:44.229Z,96700.80
2019-06-01T03:19:15.878Z,96707.25
2019-06-01T03:21:48.448Z,96704.08
2019-06-01T03:24:20.763Z,96708.63
2019-06-01T03:26:51.570Z,96705.95
2019-06-01T03:29:22.006Z,96702.21
2019-06-01T03:32:19.093Z,96698.72
2019-06-01T03:34:30.360Z,96698.20
2019-06-01T03:37:02.778Z,96701.98
2019-06-01T03:39:33.594Z,96698.03
2019-06-01T03:42:05.224Z,96707.16
2019-06-01T03:44:36.257Z,96697.27
2019-06-01T03:47:07.583Z,96702.95
2019-06-01T03:49:38.107Z,96701.12
2019-06-01T03:52:11.020Z,96704.68
2019-06-01T03:54:41.453Z,96707.92
2019-06-01T03:57:11.887Z,96710.12
2019-06-01T03:59:42.321Z,96712.55
2019-06-01T04:02:12.762Z,96705.11
2019-06-01T04:04:43.540Z,96705.71
2019-06-01T04:07:17.291Z,96700.17
2019-06-01T04:09:47.682Z,96703.45
2019-06-01T04:12:18.134Z,96703.79
2019-06-01T04:14:48.824Z,96703.61
2019-06-01T04:17:19.369Z,96709.03
2019-06-01T04:19:51.098Z,96710.45
2019-06-01T04:22:21.616Z,96714.28
2019-06-01T04:24:52.060Z,96709.28
2019-06-01T04:27:22.654Z,96707.19
2019-06-01T04:29:54.233Z,96710.17
2019-06-01T04:32:26.013Z,96710.56
2019-06-01T04:34:56.443Z,96707.66
2019-06-01T04:37:26.875Z,96706.66
2019-06-01T04:39:57.278Z,96708.36
2019-06-01T04:42:28.087Z,96709.49
2019-06-01T04:44:58.775Z,96702.55
2019-06-01T04:47:34.026Z,96709.09
2019-06-01T04:50:04.984Z,96708.87
2019-06-01T04:52:35.413Z,96710.23
2019-06-01T04:55:07.301Z,96712.98
2019-06-01T04:57:37.923Z,96715.95
2019-06-01T05:00:25.813Z,96712.45
2019-06-01T05:03:05.014Z,96712.19
2019-06-01T05:05:25.195Z,96714.63
2019-06-01T05:07:55.634Z,96718.95
2019-06-01T05:10:26.258Z,96716.21
2019-06-01T05:12:58.374Z,96714.27
2019-06-01T05:15:38.248Z,96715.29
2019-06-01T05:18:09.968Z,96709.81
2019-06-01T05:20:40.657Z,96708.63
2019-06-01T05:23:11.266Z,96716.07
2019-06-01T05:25:46.758Z,96711.06
2019-06-01T05:28:17.525Z,96713.29
2019-06-01T05:30:51.110Z,96714.08
2019-06-01T05:33:36.456Z,96712.52
2019-06-01T05:35:54.137Z,96713.11
2019-06-01T05:38:24.647Z,96712.14
2019-06-01T05:40:56.671Z,96707.05
2019-06-01T05:43:27.112Z,96701.64
2019-06-01T05:45:57.571Z,96701.45
2019-06-01T05:48:30.613Z,96706.43
2019-06-01T05:51:00.421Z,96710.31
2019-06-01T05:53:30.903Z,96714.69
2019-06-01T05:56:02.102Z,96715.81
2019-06-01T05:58:32.553Z,96715.63
2019-06-01T06:01:03.118Z,96712.41
2019-06-01T06:03:40.488Z,96717.56
2019-06-01T06:06:06.702Z,96713.86
2019-06-01T06:09:00.519Z,96713.42
2019-06-01T06:11:32.928Z,96714.80
2019-06-01T06:14:05.126Z,96712.33
2019-06-01T06:16:36.148Z,96707.25
2019-06-01T06:19:06.568Z,96706.50
2019-06-01T06:21:39.401Z,96711.21
2019-06-01T06:24:10.209Z,96713.97
2019-06-01T06:26:40.655Z,96701.69
2019-06-01T06:29:11.159Z,96709.44
2019-06-01T06:31:41.835Z,96707.73
2019-06-01T06:34:13.277Z,96709.55
2019-06-01T06:36:44.225Z,96709.19
2019-06-01T06:39:15.828Z,96708.33
2019-06-01T06:41:47.021Z,96701.45
2019-06-01T06:44:20.601Z,96700.67
2019-06-01T06:46:51.059Z,96704.55
2019-06-01T06:49:26.325Z,96709.06
2019-06-01T06:51:56.901Z,96709.64
2019-06-01T06:54:31.396Z,96711.26
2019-06-01T06:57:01.785Z,96715.84
2019-06-01T06:59:34.134Z,96712.84
2019-06-01T07:02:04.653Z,96715.06
2019-06-01T07:04:42.271Z,96720.05
2019-06-01T07:07:17.883Z,96716.98
2019-06-01T07:09:48.366Z,96720.17
2019-06-01T07:12:19.209Z,96719.84
2019-06-01T07:14:50.004Z,96726.91
2019-06-01T07:17:29.339Z,96731.02
2019-06-01T07:20:00.035Z,96727.11
2019-06-01T07:22:30.422Z,96722.91
2019-06-01T07:25:00.924Z,96731.46
2019-06-01T07:27:32.515Z,96724.82
2019-06-01T07:30:03.111Z,96728.48
2019-06-01T07:32:35.903Z,96728.96
2019-06-01T07:35:09.180Z,96718.72
2019-06-01T07:37:41.845Z,96717.40
2019-06-01T07:40:13.819Z,96718.24
2019-06-01T07:42:44.454Z,96716.01
2019-06-01T07:45:15.253Z,96712.20
2019-06-01T07:47:46.019Z,96711.14
2019-06-01T07:50:16.506Z,96708.61
2019-06-01T07:52:47.001Z,96713.17
2019-06-01T07:55:19.121Z,96713.66
2019-06-01T07:57:49.580Z,96716.43
2019-06-01T08:00:22.203Z,96716.97
2019-06-01T08:02:52.271Z,96717.41
2019-06-01T08:05:23.757Z,96715.95
2019-06-01T08:07:55.099Z,96717.17
2019-06-01T08:10:27.767Z,96713.33
2019-06-01T08:13:06.380Z,96713.89
2019-06-01T08:15:36.809Z,96713.38
2019-06-01T08:18:10.052Z,96713.67
2019-06-01T08:20:42.100Z,96715.97
2019-06-01T08:23:12.922Z,96711.17
2019-06-01T08:25:51.185Z,96705.86
2019-06-01T08:28:32.754Z,96711.52
2019-06-01T08:31:05.088Z,96707.31
2019-06-01T08:33:36.083Z,96699.42
2019-06-01T08:36:08.301Z,96706.82
2019-06-01T08:38:41.829Z,96705.22
2019-06-01T08:41:12.579Z,96704.08
2019-06-01T08:43:43.138Z,96702.38
2019-06-01T08:46:14.994Z,96709.45
2019-06-01T08:48:45.376Z,96703.96
2019-06-01T08:51:15.838Z,96703.87
2019-06-01T08:54:09.725Z,96706.95
2019-06-01T08:56:40.343Z,96703.92
2019-06-01T08:59:10.970Z,96699.59
2019-06-01T09:01:41.838Z,96690.56
2019-06-01T09:04:12.302Z,96690.17
2019-06-01T09:06:48.465Z,96693.95
2019-06-01T09:09:19.140Z,96696.02
2019-06-01T09:11:50.214Z,96695.80
2019-06-01T09:14:20.981Z,96690.88
2019-06-01T09:16:51.820Z,96697.11
2019-06-01T09:19:22.264Z,96698.28
2019-06-01T09:21:55.099Z,96696.33
2019-06-01T09:24:25.858Z,96695.77
2019-06-01T09:26:57.558Z,96691.14
2019-06-01T09:29:30.044Z,96686.52
2019-06-01T09:32:00.805Z,96686.78
2019-06-01T09:34:41.879Z,96688.20
2019-06-01T09:37:15.329Z,96690.54
2019-06-01T09:39:46.119Z,96694.38
2019-06-01T09:42:18.868Z,96683.97
2019-06-01T09:44:49.333Z,96689.84
2019-06-01T09:47:19.840Z,96690.23
2019-06-01T09:50:23.749Z,96690.72
2019-06-01T09:52:54.224Z,96679.88
2019-06-01T09:55:24.655Z,96685.23
2019-06-01T09:57:55.964Z,96680.06
2019-06-01T10:00:27.021Z,96679.86
2019-06-01T10:03:00.266Z,96678.73
2019-06-01T10:05:30.763Z,96679.42
2019-06-01T10:08:01.177Z,96671.75
2019-06-01T10:10:34.229Z,96668.79
2019-06-01T10:13:07.936Z,96668.47
2019-06-01T10:15:40.039Z,96667.44
2019-06-01T10:18:12.613Z,96668.52
2019-06-01T10:20:46.266Z,96660.77
2019-06-01T10:23:17.027Z,96652.83
2019-06-01T10:25:48.932Z,96659.05
2019-06-01T10:28:20.312Z,96653.45
2019-06-01T10:30:51.290Z,96652.45
2019-06-01T10:33:21.828Z,96647.04
2019-06-01T10:35:53.786Z,96636.81
2019-06-01T10:38:28.847Z,96640.31
2019-06-01T10:41:02.629Z,96640.04
2019-06-01T10:43:35.605Z,96631.91
2019-06-01T10:46:06.836Z,96633.92
2019-06-01T10:48:40.101Z,96631.91
2019-06-01T10:51:21.707Z,96629.09
2019-06-01T10:53:52.159Z,96633.13
2019-06-01T10:56:22.563Z,96624.05
2019-06-01T10:59:01.035Z,96625.14
2019-06-01T11:01:32.958Z,96621.30
2019-06-01T11:04:03.807Z,96622.88
2019-06-01T11:06:40.672Z,96618.69
2019-06-01T11:09:14.190Z,96622.15
2019-06-01T11:11:45.081Z,96619.38
2019-06-01T11:14:16.028Z,96622.08
2019-06-01T11:16:56.250Z,96618.33
2019-06-01T11:19:24.328Z,96614.46
2019-06-01T11:21:55.097Z,96613.10
2019-06-01T11:24:29.875Z,96610.95
2019-06-01T11:27:00.457Z,96619.91
2019-06-01T11:29:31.204Z,96619.00
2019-06-01T11:32:01.876Z,96619.53
2019-06-01T11:34:32.359Z,96616.64
2019-06-01T11:37:05.563Z,96612.98
2019-06-01T11:39:47.980Z,96603.02
2019-06-01T11:42:20.017Z,96604.25
2019-06-01T11:44:50.639Z,96604.27
2019-06-01T11:47:25.174Z,96600.13
2019-06-01T11:49:58.563Z,96599.69
2019-06-01T11:52:29.583Z,96594.27
2019-06-01T11:55:06.190Z,96597.39
2019-06-01T11:57:41.602Z,96593.38
2019-06-01T12:00:15.535Z,96587.76
2019-06-01T12:02:47.965Z,96580.28
2019-06-01T12:05:18.427Z,96584.95
2019-06-01T12:07:57.879Z,96588.94
2019-06-01T12:10:28.274Z,96583.03
2019-06-01T12:12:58.709Z,96590.23
2019-06-01T12:15:29.157Z,96580.33
2019-06-01T12:18:03.287Z,96583.47
2019-06-01T12:20:36.583Z,96583.67
2019-06-01T12:23:09.883Z,96577.09
2019-06-01T12:25:42.234Z,96577.16
2019-06-01T12:28:17.771Z,96576.16
2019-06-01T12:30:50.353Z,96570.22
2019-06-01T12:33:24.717Z,96557.13
2019-06-01T12:35:56.249Z,96559.75
2019-06-01T12:38:26.719Z,96560.33
2019-06-01T12:41:03.094Z,96558.60
2019-06-01T12:43:33.581Z,96554.06
2019-06-01T12:49:04.926Z,96548.37
2019-06-01T12:51:35.385Z,96547.16
2019-06-01T12:54:08.487Z,96547.89
2019-06-01T12:56:42.816Z,96548.50
2019-06-01T13:02:08.301Z,96536.14
2019-06-01T13:04:40.550Z,96532.25
2019-06-01T13:07:17.285Z,96526.37
2019-06-01T13:09:50.645Z,96528.83
2019-06-01T13:12:21.133Z,96525.02
2019-06-01T13:15:01.706Z,96522.38
2019-06-01T13:17:33.418Z,96516.78
2019-06-01T13:20:04.887Z,96518.22
2019-06-01T13:22:35.555Z,96514.07
2019-06-01T13:25:06.008Z,96505.09
2019-06-01T13:27:40.827Z,96502.77
2019-06-01T13:30:20.954Z,96504.45
2019-06-01T13:32:53.437Z,96502.18
2019-06-01T13:35:24.372Z,96492.22
2019-06-01T13:38:10.880Z,96491.11
2019-06-01T13:40:30.950Z,96491.28
2019-06-01T13:43:03.118Z,96481.56
2019-06-01T13:45:36.658Z,96481.30
2019-06-01T13:48:10.109Z,96482.02
2019-06-01T13:50:40.506Z,96479.94
2019-06-01T13:53:11.201Z,96478.34
2019-06-01T13:55:46.058Z,96475.09
2019-06-01T13:58:17.913Z,96466.05
2019-06-01T14:00:48.556Z,96470.22
2019-06-01T14:03:22.197Z,96464.95
2019-06-01T14:06:00.989Z,96464.26
2019-06-01T14:08:30.653Z,96475.58
2019-06-01T14:11:04.312Z,96466.82
2019-06-01T14:13:38.244Z,96467.11
2019-06-01T14:16:10.556Z,96463.87
2019-06-01T14:18:40.979Z,96465.60
2019-06-01T14:21:11.398Z,96459.72
2019-06-01T14:23:47.603Z,96456.80
2019-06-01T14:26:19.278Z,96456.03
2019-06-01T14:28:50.219Z,96457.19
2019-06-01T14:31:21.134Z,96448.95
2019-06-01T14:33:52.569Z,96453.36
2019-06-01T14:36:23.940Z,96449.15
2019-06-01T14:38:58.658Z,96449.80
2019-06-01T14:41:36.159Z,96442.03
2019-06-01T14:44:06.806Z,96441.87
2019-06-01T14:46:52.663Z,96439.91
2019-06-01T14:49:11.124Z,96441.56
2019-06-01T14:51:43.302Z,96440.02
2019-06-01T14:54:13.744Z,96437.31
2019-06-01T14:56:44.193Z,96438.89
2019-06-01T14:59:17.880Z,96441.66
2019-06-01T15:01:48.614Z,96437.14
2019-06-01T15:04:20.907Z,96438.62
2019-06-01T15:06:52.311Z,96430.88
2019-06-01T15:09:28.511Z,96430.51
2019-06-01T15:12:03.886Z,96424.09
2019-06-01T15:14:38.354Z,96422.19
2019-06-01T15:17:13.709Z,96423.45
2019-06-01T15:19:47.095Z,96418.00
2019-06-01T15:22:28.566Z,96416.88
2019-06-01T15:25:03.648Z,96419.97
2019-06-01T15:27:34.266Z,96412.05
2019-06-01T15:30:05.721Z,96407.36
2019-06-01T15:32:36.929Z,96407.64
2019-06-01T15:35:18.191Z,96407.01
2019-06-01T15:37:57.993Z,96407.80
2019-06-01T15:40:27.559Z,96405.63
2019-06-01T15:43:05.080Z,96407.36
2019-06-01T15:46:31.935Z,96405.45
2019-06-01T15:49:19.654Z,96413.73
2019-06-01T15:51:47.596Z,96398.27
2019-06-01T15:54:18.264Z,96408.80
2019-06-01T15:56:54.333Z,96400.89
2019-06-01T15:59:24.817Z,96402.34
2019-06-01T16:01:57.239Z,96399.22
2019-06-01T16:04:30.610Z,96390.73
2019-06-01T16:07:01.613Z,96396.95
2019-06-01T16:09:42.620Z,96386.30
2019-06-01T16:12:10.812Z,96382.98
2019-06-01T16:14:41.712Z,96388.27
2019-06-01T16:17:12.180Z,96383.88
2019-06-01T16:19:48.299Z,96383.59
2019-06-01T16:22:21.097Z,96388.83
2019-06-01T16:24:52.255Z,96389.70
2019-06-01T16:27:24.209Z,96382.58
2019-06-01T16:29:54.797Z,96383.88
2019-06-01T16:32:32.861Z,96385.70
2019-06-01T16:35:03.324Z,96381.28
2019-06-01T16:37:37.131Z,96386.23
2019-06-01T16:40:10.201Z,96386.02
2019-06-01T16:42:46.547Z,96380.29
2019-06-01T16:45:20.315Z,96372.80
2019-06-01T16:47:55.447Z,96372.43
2019-06-01T16:50:26.537Z,96376.23
2019-06-01T16:53:00.081Z,96379.90
2019-06-01T16:55:32.144Z,96373.20
2019-06-01T16:58:08.464Z,96369.47
2019-06-01T17:00:38.883Z,96369.60
2019-06-01T17:03:11.346Z,96371.59
2019-06-01T17:05:44.671Z,96366.05
2019-06-01T17:08:17.993Z,96367.13
2019-06-01T17:10:56.678Z,96361.54
2019-06-01T17:13:27.304Z,96363.11
2019-06-01T17:16:00.985Z,96359.53
2019-06-01T17:18:30.747Z,96355.69
2019-06-01T17:21:01.508Z,96358.53
2019-06-01T17:23:33.386Z,96358.23
2019-06-01T17:26:07.020Z,96363.34
2019-06-01T17:28:40.953Z,96365.45
2019-06-01T17:31:17.133Z,96356.39
2019-06-01T17:33:48.898Z,96362.12
2019-06-01T17:36:19.665Z,96363.92
2019-06-01T17:38:50.063Z,96358.33
2019-06-01T17:41:24.140Z,96358.02
2019-06-01T17:43:57.080Z,96360.91
2019-06-01T17:46:31.108Z,96358.22
2019-06-01T17:49:04.043Z,96354.36
2019-06-01T17:51:39.953Z,96352.91
2019-06-01T17:54:19.575Z,96351.36
2019-06-01T17:56:51.569Z,96350.52
2019-06-01T17:59:32.128Z,96349.59
2019-06-01T18:02:05.783Z,96351.64
2019-06-01T18:04:38.403Z,96349.47
2019-06-01T18:07:15.653Z,96346.22
2019-06-01T18:09:47.230Z,96344.48
2019-06-01T18:12:28.769Z,96346.94
2019-06-01T18:15:02.299Z,96347.45
2019-06-01T18:17:32.088Z,96348.17
2019-06-01T18:20:04.305Z,96349.09
2019-06-01T18:22:35.121Z,96357.20
2019-06-01T18:25:10.588Z,96353.38
2019-06-01T18:27:47.099Z,96358.33
2019-06-01T18:30:21.794Z,96361.20
2019-06-01T18:33:01.100Z,96354.66
2019-06-01T18:35:33.051Z,96362.67
2019-06-01T18:38:03.794Z,96367.55
2019-06-01T18:40:39.105Z,96373.11
2019-06-01T18:43:13.993Z,96369.45
2019-06-01T18:45:51.688Z,96370.98
2019-06-01T18:48:22.961Z,96382.10
2019-06-01T18:50:54.842Z,96378.05
2019-06-01T18:53:31.026Z,96377.49
2019-06-01T18:56:01.794Z,96378.55
2019-06-01T18:58:32.255Z,96381.97
2019-06-01T19:01:06.366Z,96379.17
2019-06-01T19:03:37.862Z,96380.00
2019-06-01T19:06:09.544Z,96385.50
2019-06-01T19:08:41.792Z,96381.47
2019-06-01T19:11:37.148Z,96389.36
2019-06-01T19:14:42.283Z,96396.37
2019-06-01T19:17:14.340Z,96388.91
2019-06-01T19:19:45.958Z,96395.17
2019-06-01T19:22:18.182Z,96395.95
2019-06-01T19:24:48.966Z,96400.14
2019-06-01T19:27:21.355Z,96399.57
2019-06-01T19:29:54.661Z,96396.41
2019-06-01T19:32:25.477Z,96396.66
2019-06-01T19:35:02.351Z,96396.67
2019-06-01T19:37:38.153Z,96404.67
2019-06-01T19:40:11.354Z,96407.72
2019-06-01T19:42:43.571Z,96402.39
2019-06-01T19:45:27.769Z,96407.52
2019-06-01T19:47:49.242Z,96413.48
2019-06-01T19:50:26.037Z,96413.54
2019-06-01T19:52:59.107Z,96415.81
2019-06-01T19:55:31.099Z,96416.75
2019-06-01T19:58:01.818Z,96414.89
2019-06-01T20:00:32.971Z,96415.89
2019-06-01T20:03:06.253Z,96413.28
2019-06-01T20:05:38.222Z,96414.94
2019-06-01T20:08:12.038Z,96424.68
2019-06-01T20:10:42.662Z,96422.73
2019-06-01T20:13:17.221Z,96424.59
2019-06-01T20:15:50.958Z,96421.58
2019-06-01T20:18:28.942Z,96432.05
2019-06-01T20:21:08.566Z,96427.59
2019-06-01T20:23:39.318Z,96429.39
2019-06-01T20:26:11.165Z,96434.11
2019-06-01T20:28:46.247Z,96437.77
2019-06-01T20:31:17.951Z,96434.98
2019-06-01T20:33:48.524Z,96432.96
2019-06-01T20:36:20.194Z,96433.94
2019-06-01T20:38:55.809Z,96432.39
2019-06-01T20:41:26.148Z,96437.91
2019-06-01T20:43:58.662Z,96433.72
2019-06-01T20:46:33.319Z,96436.84
2019-06-01T20:49:03.778Z,96447.26
2019-06-01T20:51:34.227Z,96446.03
2019-06-01T20:54:07.882Z,96442.31
2019-06-01T20:56:38.511Z,96448.07
2019-06-01T20:59:17.329Z,96443.87
2019-06-01T21:01:47.157Z,96445.79
2019-06-01T21:04:20.407Z,96448.58
2019-06-01T21:06:58.673Z,96449.44
2019-06-01T21:09:29.209Z,96451.70
2019-06-01T21:12:04.742Z,96446.08
2019-06-01T21:14:36.974Z,96450.21
2019-06-01T21:17:16.506Z,96445.92
2019-06-01T21:19:47.835Z,96441.95
2019-06-01T21:22:22.712Z,96447.17
2019-06-01T21:24:53.233Z,96441.81
2019-06-01T21:27:40.799Z,96444.88
2019-06-01T21:30:12.702Z,96450.57
2019-06-01T21:32:44.262Z,96446.55
2019-06-01T21:35:15.285Z,96450.66
2019-06-01T21:37:48.560Z,96444.81
2019-06-01T21:40:21.411Z,96452.67
2019-06-01T21:43:06.821Z,96453.30
2019-06-01T21:45:25.793Z,96449.00
2019-06-01T21:47:56.694Z,96456.62
2019-06-01T21:50:48.273Z,96457.97
2019-06-01T21:53:24.536Z,96448.86
2019-06-01T21:55:55.051Z,96451.59
2019-06-01T21:58:27.179Z,96444.92
2019-06-01T22:00:59.871Z,96448.48
2019-06-01T22:03:34.615Z,96451.46
2019-06-01T22:06:05.141Z,96447.70
2019-06-01T22:08:36.356Z,96444.80
2019-06-01T22:11:19.366Z,96447.52
2019-06-01T22:13:52.716Z,96445.16
2019-06-01T22:16:27.872Z,96455.13
2019-06-01T22:19:01.233Z,96455.42
2019-06-01T22:21:31.689Z,96453.05
2019-06-01T22:24:03.385Z,96459.80
2019-06-01T22:26:38.755Z,96460.40
2019-06-01T22:29:11.072Z,96451.78
2019-06-01T22:31:51.095Z,96450.18
2019-06-01T22:34:22.659Z,96448.30
2019-06-01T22:36:53.223Z,96448.89
2019-06-01T22:39:25.365Z,96449.44
2019-06-01T22:41:56.149Z,96451.88
2019-06-01T22:44:26.906Z,96449.75
2019-06-01T22:46:57.785Z,96449.22
2019-06-01T22:49:28.933Z,96441.16
2019-06-01T22:52:04.572Z,96439.31
2019-06-01T22:54:34.988Z,96444.17
2019-06-01T22:57:09.450Z,96441.80
2019-06-01T22:59:40.567Z,96442.33
2019-06-01T23:02:12.136Z,96441.00
2019-06-01T23:04:42.593Z,96440.46
2019-06-01T23:07:15.723Z,96438.89
2019-06-01T23:09:48.344Z,96442.09
2019-06-01T23:12:23.249Z,96436.45
2019-06-01T23:14:54.138Z,96432.98
2019-06-01T23:17:25.741Z,96432.45
2019-06-01T23:20:10.138Z,96426.54
2019-06-01T23:22:40.555Z,96427.34
2019-06-01T23:25:11.092Z,96423.08
2019-06-01T23:27:43.064Z,96422.55
2019-06-01T23:30:13.785Z,96421.48
2019-06-01T23:32:44.177Z,96417.20
2019-06-01T23:35:15.779Z,96404.56
2019-06-01T23:37:47.628Z,96413.72
2019-06-01T23:40:18.118Z,96408.34
2019-06-01T23:42:48.574Z,96406.48
2019-06-01T23:45:19.099Z,96399.45
2019-06-01T23:47:53.325Z,96402.98
2019-06-01T23:50:24.982Z,96392.77
2019-06-01T23:53:10.413Z,96396.27
2019-06-01T23:55:28.268Z,96388.23
2019-06-01T23:57:58.766Z,96391.20
